createdAt,value
2019-02-20T00:00:21.587Z,22.03
2019-02-20T00:02:50.039Z,26.30
2019-02-20T00:05:18.781Z,21.37
2019-02-20T00:07:47.237Z,21.70
2019-02-20T00:10:15.696Z,23.67
2019-02-20T00:12:44.159Z,21.87
2019-02-20T00:15:12.703Z,22.80
2019-02-20T00:17:41.349Z,24.23
2019-02-20T00:20:09.877Z,25.07
2019-02-20T00:22:40.496Z,25.27
2019-02-20T00:25:08.618Z,22.90
2019-02-20T00:27:37.077Z,27.70
2019-02-20T00:30:08.665Z,24.07
2019-02-20T00:32:37.194Z,25.83
2019-02-20T00:35:06.644Z,20.07
2019-02-20T00:37:35.109Z,26.27
2019-02-20T00:40:04.848Z,26.13
2019-02-20T00:42:33.312Z,26.50
2019-02-20T00:45:03.402Z,26.03
2019-02-20T00:47:39.317Z,21.03
2019-02-20T00:50:07.856Z,23.60
2019-02-20T00:52:38.051Z,21.97
2019-02-20T00:55:08.170Z,23.03
2019-02-20T00:57:36.713Z,23.77
2019-02-20T01:00:08.509Z,19.83
2019-02-20T01:02:36.973Z,23.00
2019-02-20T01:05:06.502Z,24.57
2019-02-20T01:07:34.959Z,22.50
2019-02-20T01:10:03.969Z,22.70
2019-02-20T01:12:32.432Z,24.40
2019-02-20T01:15:00.895Z,21.53
2019-02-20T01:17:29.469Z,24.80
2019-02-20T01:19:57.919Z,21.23
2019-02-20T01:22:26.406Z,25.10
2019-02-20T01:24:54.938Z,27.47
2019-02-20T01:27:23.405Z,24.20
2019-02-20T01:29:52.034Z,24.27
2019-02-20T01:32:20.574Z,25.23
2019-02-20T01:34:49.082Z,21.83
2019-02-20T01:37:17.857Z,24.37
2019-02-20T01:39:46.327Z,23.40
2019-02-20T01:42:14.777Z,22.37
2019-02-20T01:44:43.245Z,23.70
2019-02-20T01:47:11.695Z,23.73
2019-02-20T01:49:40.163Z,21.90
2019-02-20T01:52:08.707Z,24.03
2019-02-20T01:54:37.163Z,24.40
2019-02-20T01:57:05.621Z,24.47
2019-02-20T01:59:34.083Z,25.87
2019-02-20T02:02:02.540Z,20.63
2019-02-20T02:04:31.106Z,24.80
2019-02-20T02:06:59.557Z,22.90
2019-02-20T02:09:28.076Z,25.87
2019-02-20T02:11:56.538Z,24.47
2019-02-20T02:14:25.000Z,22.90
2019-02-20T02:16:53.482Z,23.17
2019-02-20T02:19:21.935Z,21.87
2019-02-20T02:21:50.397Z,22.17
2019-02-20T02:24:18.886Z,26.00
2019-02-20T02:26:47.343Z,24.27
2019-02-20T02:29:15.814Z,23.97
2019-02-20T02:31:44.290Z,24.90
2019-02-20T02:34:12.751Z,21.30
2019-02-20T02:36:41.213Z,22.73
2019-02-20T02:39:09.693Z,22.33
2019-02-20T02:41:38.144Z,23.80
2019-02-20T02:44:06.622Z,22.67
2019-02-20T02:46:35.163Z,22.27
2019-02-20T02:49:03.691Z,22.10
2019-02-20T02:51:32.177Z,23.03
2019-02-20T02:54:00.634Z,23.27
2019-02-20T02:56:29.101Z,22.83
2019-02-20T02:58:57.561Z,25.83
2019-02-20T03:01:26.402Z,24.47
2019-02-20T03:03:54.873Z,28.13
2019-02-20T03:06:23.406Z,25.30
2019-02-20T03:08:51.872Z,29.80
2019-02-20T03:11:20.372Z,24.43
2019-02-20T03:13:48.919Z,26.87
2019-02-20T03:16:17.439Z,27.40
2019-02-20T03:18:45.887Z,33.43
2019-02-20T03:21:14.348Z,35.20
2019-02-20T03:23:43.146Z,38.43
2019-02-20T03:26:11.638Z,29.77
2019-02-20T03:28:40.298Z,30.90
2019-02-20T03:31:08.846Z,27.87
2019-02-20T03:33:37.368Z,29.47
2019-02-20T03:36:05.838Z,31.50
2019-02-20T03:38:34.305Z,47.20
2019-02-20T03:41:03.224Z,40.47
2019-02-20T03:43:31.749Z,55.50
2019-02-20T03:46:00.210Z,50.50
2019-02-20T03:48:28.679Z,50.67
2019-02-20T03:50:57.198Z,46.63
2019-02-20T03:53:25.696Z,49.20
2019-02-20T03:55:54.720Z,39.67
2019-02-20T03:58:23.254Z,40.73
2019-02-20T04:00:51.711Z,43.03
2019-02-20T04:03:20.176Z,38.50
2019-02-20T04:05:48.711Z,41.40
2019-02-20T04:08:17.173Z,33.87
2019-02-20T04:10:45.642Z,36.47
2019-02-20T04:13:14.135Z,35.83
2019-02-20T04:15:42.644Z,34.67
2019-02-20T04:18:11.164Z,35.60
2019-02-20T04:20:42.671Z,38.93
2019-02-20T04:23:11.139Z,37.33
2019-02-20T04:25:39.786Z,35.53
2019-02-20T04:28:08.349Z,38.93
2019-02-20T04:30:36.933Z,42.00
2019-02-20T04:33:05.471Z,41.83
2019-02-20T04:35:33.916Z,39.63
2019-02-20T04:38:02.387Z,38.83
2019-02-20T04:40:30.839Z,38.87
2019-02-20T04:42:59.395Z,38.07
2019-02-20T04:45:27.923Z,36.43
2019-02-20T04:47:56.536Z,42.63
2019-02-20T04:50:25.040Z,40.00
2019-02-20T04:52:53.563Z,40.70
2019-02-20T04:55:22.096Z,40.13
2019-02-20T04:58:09.878Z,44.70
2019-02-20T05:00:38.339Z,41.43
2019-02-20T05:03:06.855Z,40.50
2019-02-20T05:05:35.433Z,39.70
2019-02-20T05:08:03.918Z,40.67
2019-02-20T05:10:32.403Z,39.43
2019-02-20T05:13:00.973Z,41.20
2019-02-20T05:15:29.446Z,39.47
2019-02-20T05:17:57.902Z,39.23
2019-02-20T05:20:26.383Z,40.37
2019-02-20T05:22:54.946Z,40.03
2019-02-20T05:25:24.303Z,39.70
2019-02-20T05:27:52.748Z,39.17
2019-02-20T05:30:21.221Z,39.07
2019-02-20T05:32:49.681Z,38.40
2019-02-20T05:35:18.487Z,35.47
2019-02-20T05:37:46.965Z,33.57
2019-02-20T05:40:15.504Z,35.60
2019-02-20T05:42:43.974Z,34.00
2019-02-20T05:45:12.435Z,37.03
2019-02-20T05:47:41.075Z,39.47
2019-02-20T05:50:09.777Z,43.73
2019-02-20T05:52:38.224Z,45.30
2019-02-20T05:55:07.367Z,44.70
2019-02-20T05:57:36.514Z,51.90
2019-02-20T06:00:08.527Z,50.00
2019-02-20T06:02:37.081Z,55.23
2019-02-20T06:05:06.347Z,62.03
2019-02-20T06:07:34.829Z,52.63
2019-02-20T06:10:03.950Z,51.07
2019-02-20T06:12:32.416Z,54.93
2019-02-20T06:15:00.888Z,50.83
2019-02-20T06:17:29.438Z,50.53
2019-02-20T06:19:57.912Z,51.90
2019-02-20T06:22:26.452Z,49.33
2019-02-20T06:24:55.040Z,51.23
2019-02-20T06:27:23.568Z,49.67
2019-02-20T06:29:52.070Z,47.63
2019-02-20T06:32:20.598Z,57.20
2019-02-20T06:34:49.561Z,53.83
2019-02-20T06:37:18.078Z,53.17
2019-02-20T06:39:46.550Z,55.73
2019-02-20T06:42:15.018Z,63.17
2019-02-20T06:44:43.545Z,55.70
2019-02-20T06:47:12.012Z,56.80
2019-02-20T06:49:40.500Z,50.23
2019-02-20T06:52:08.976Z,50.00
2019-02-20T06:54:37.427Z,52.37
2019-02-20T06:57:05.892Z,50.47
2019-02-20T06:59:34.439Z,52.40
2019-02-20T07:02:02.951Z,49.53
2019-02-20T07:04:31.489Z,55.08
2019-02-20T07:07:18.214Z,80.67
2019-02-20T07:10:12.486Z,65.67
2019-02-20T07:12:46.906Z,53.17
2019-02-20T07:15:30.576Z,60.03
2019-02-20T07:18:20.013Z,51.80
2019-02-20T07:21:14.454Z,45.87
2019-02-20T07:23:52.005Z,40.00
2019-02-20T07:26:50.961Z,35.50
2019-02-20T07:29:22.552Z,36.33
2019-02-20T07:31:51.077Z,35.63
2019-02-20T07:34:19.546Z,32.73
2019-02-20T07:36:48.008Z,32.67
2019-02-20T07:39:16.494Z,39.13
2019-02-20T07:41:44.955Z,35.70
2019-02-20T07:44:13.409Z,34.77
2019-02-20T07:46:41.865Z,30.03
2019-02-20T07:49:10.425Z,35.43
2019-02-20T07:51:38.892Z,30.80
2019-02-20T07:54:07.444Z,32.33
2019-02-20T07:56:35.949Z,37.30
2019-02-20T07:59:04.715Z,35.07
2019-02-20T08:01:33.164Z,35.80
2019-02-20T08:04:01.657Z,33.70
2019-02-20T08:06:30.180Z,36.73
2019-02-20T08:08:59.096Z,36.03
2019-02-20T08:11:27.558Z,36.50
2019-02-20T08:13:56.071Z,32.43
2019-02-20T08:16:24.583Z,38.60
2019-02-20T08:18:53.062Z,39.10
2019-02-20T08:21:21.611Z,39.83
2019-02-20T08:23:50.076Z,41.97
2019-02-20T08:26:18.553Z,39.53
2019-02-20T08:28:47.028Z,35.17
2019-02-20T08:31:15.550Z,37.10
2019-02-20T08:33:44.026Z,38.37
2019-02-20T08:36:12.519Z,41.93
2019-02-20T08:38:40.980Z,40.07
2019-02-20T08:41:09.514Z,43.30
2019-02-20T08:43:37.973Z,42.83
2019-02-20T08:46:06.445Z,41.97
2019-02-20T08:48:34.910Z,43.60
2019-02-20T08:51:03.466Z,42.77
2019-02-20T08:53:32.118Z,40.60
2019-02-20T08:56:00.556Z,44.97
2019-02-20T08:58:29.024Z,43.03
2019-02-20T09:00:57.481Z,39.20
2019-02-20T09:03:26.003Z,42.17
2019-02-20T09:05:54.464Z,38.83
2019-02-20T09:08:22.918Z,43.00
2019-02-20T09:10:51.516Z,43.20
2019-02-20T09:13:20.081Z,42.27
2019-02-20T09:15:48.543Z,43.77
2019-02-20T09:18:17.000Z,45.83
2019-02-20T09:20:45.475Z,43.07
2019-02-20T09:23:14.007Z,42.77
2019-02-20T09:25:42.480Z,48.47
2019-02-20T09:28:11.020Z,86.10
2019-02-20T09:30:39.611Z,116.20
2019-02-20T09:33:08.110Z,43.93
2019-02-20T09:35:36.630Z,64.50
2019-02-20T09:38:05.293Z,50.17
2019-02-20T09:40:33.823Z,37.87
2019-02-20T09:43:02.436Z,39.83
2019-02-20T09:45:30.904Z,39.63
2019-02-20T09:47:59.366Z,38.83
2019-02-20T09:50:27.811Z,37.00
2019-02-20T09:52:56.267Z,37.70
2019-02-20T09:55:24.740Z,33.83
2019-02-20T09:57:53.265Z,32.20
2019-02-20T10:00:21.737Z,32.60
2019-02-20T10:05:11.304Z,34.03
2019-02-20T10:07:39.765Z,33.00
2019-02-20T10:10:10.020Z,31.10
2019-02-20T10:12:38.565Z,31.03
2019-02-20T10:15:18.685Z,29.93
2019-02-20T10:17:47.145Z,31.27
2019-02-20T10:20:15.661Z,28.83
2019-02-20T10:22:44.139Z,27.47
2019-02-20T10:25:13.503Z,25.90
2019-02-20T10:27:42.017Z,25.73
2019-02-20T10:30:20.750Z,33.73
2019-02-20T10:32:49.221Z,28.40
2019-02-20T10:35:17.809Z,27.77
2019-02-20T10:37:46.279Z,30.70
2019-02-20T10:40:14.886Z,27.93
2019-02-20T10:42:43.338Z,28.77
2019-02-20T10:45:12.749Z,28.53
2019-02-20T10:47:41.445Z,29.40
2019-02-20T10:50:12.318Z,24.17
2019-02-20T10:52:40.789Z,25.13
2019-02-20T10:55:10.176Z,26.07
2019-02-20T10:57:38.707Z,25.82
2019-02-20T11:00:23.517Z,26.50
2019-02-20T11:02:44.468Z,26.00
2019-02-20T11:05:12.923Z,28.27
2019-02-20T11:07:41.530Z,25.07
2019-02-20T11:10:10.074Z,25.03
2019-02-20T11:12:38.542Z,26.33
2019-02-20T11:15:08.069Z,26.13
2019-02-20T11:17:37.281Z,25.27
2019-02-20T11:20:11.040Z,27.37
2019-02-20T11:22:39.830Z,27.63
2019-02-20T11:25:10.747Z,25.33
2019-02-20T11:27:39.666Z,26.83
2019-02-20T11:30:11.503Z,27.07
2019-02-20T11:32:40.011Z,26.67
2019-02-20T11:35:09.121Z,25.87
2019-02-20T11:37:37.624Z,25.03
2019-02-20T11:40:08.630Z,24.17
2019-02-20T11:42:37.099Z,24.70
2019-02-20T11:45:11.517Z,26.23
2019-02-20T11:47:39.972Z,24.60
2019-02-20T11:50:10.254Z,25.07
2019-02-20T11:52:39.375Z,26.50
2019-02-20T11:55:09.849Z,23.53
2019-02-20T11:57:38.586Z,26.03
2019-02-20T12:00:10.271Z,27.20
2019-02-20T12:02:38.721Z,36.33
2019-02-20T12:05:07.502Z,28.37
2019-02-20T12:07:36.040Z,25.17
2019-02-20T12:10:10.058Z,24.03
2019-02-20T12:12:38.519Z,26.27
2019-02-20T12:15:08.429Z,23.10
2019-02-20T12:17:37.123Z,24.97
2019-02-20T12:20:07.939Z,22.03
2019-02-20T12:22:36.475Z,23.93
2019-02-20T12:25:07.452Z,24.53
2019-02-20T12:27:35.917Z,21.80
2019-02-20T12:30:06.930Z,24.87
2019-02-20T12:32:35.526Z,23.07
2019-02-20T12:35:05.326Z,20.50
2019-02-20T12:37:33.796Z,20.37
2019-02-20T12:40:02.504Z,21.80
2019-02-20T12:42:31.053Z,20.77
2019-02-20T12:44:59.527Z,19.63
2019-02-20T12:47:28.077Z,20.97
2019-02-20T12:49:56.652Z,23.57
2019-02-20T12:52:26.497Z,17.73
2019-02-20T12:54:55.235Z,19.60
2019-02-20T12:57:23.971Z,19.90
2019-02-20T12:59:52.547Z,18.23
2019-02-20T13:02:21.004Z,17.00
2019-02-20T13:04:49.567Z,11.87
2019-02-20T13:07:18.107Z,13.30
2019-02-20T13:09:46.577Z,21.13
2019-02-20T13:12:15.040Z,19.63
2019-02-20T13:14:43.680Z,19.17
2019-02-20T13:17:12.141Z,19.80
2019-02-20T13:19:40.655Z,14.07
2019-02-20T13:22:09.109Z,18.03
2019-02-20T13:24:37.570Z,17.27
2019-02-20T13:27:08.606Z,14.57
2019-02-20T13:29:36.312Z,16.07
2019-02-20T13:32:04.897Z,12.43
2019-02-20T13:34:33.723Z,15.53
2019-02-20T13:37:02.196Z,15.77
2019-02-20T13:39:30.714Z,13.03
2019-02-20T13:41:59.180Z,13.70
2019-02-20T13:44:27.789Z,14.67
2019-02-20T13:46:56.597Z,15.40
2019-02-20T13:49:25.336Z,14.37
2019-02-20T13:51:53.838Z,16.63
2019-02-20T13:54:22.404Z,13.87
2019-02-20T13:56:50.949Z,12.03
2019-02-20T13:59:19.578Z,14.50
2019-02-20T14:01:48.139Z,14.57
2019-02-20T14:04:17.053Z,11.67
2019-02-20T14:06:45.575Z,12.67
2019-02-20T14:09:15.204Z,19.63
2019-02-20T14:11:44.014Z,12.53
2019-02-20T14:14:12.599Z,15.90
2019-02-20T14:16:41.076Z,17.30
2019-02-20T14:19:10.168Z,15.37
2019-02-20T14:21:38.700Z,10.93
2019-02-20T14:24:07.617Z,13.60
2019-02-20T14:26:36.166Z,13.53
2019-02-20T14:29:04.697Z,16.17
2019-02-20T14:31:33.229Z,11.03
2019-02-20T14:34:01.762Z,9.67
2019-02-20T14:36:30.885Z,14.93
2019-02-20T14:38:59.418Z,13.83
2019-02-20T14:41:28.042Z,10.13
2019-02-20T14:43:56.662Z,8.87
2019-02-20T14:46:25.247Z,12.17
2019-02-20T14:48:54.085Z,14.03
2019-02-20T14:51:22.640Z,13.00
2019-02-20T14:53:51.155Z,12.87
2019-02-20T14:56:19.608Z,11.87
2019-02-20T14:58:48.918Z,12.97
2019-02-20T15:01:17.515Z,13.33
2019-02-20T15:03:46.182Z,13.20
2019-02-20T15:06:14.795Z,12.47
2019-02-20T15:08:46.996Z,10.73
2019-02-20T15:11:15.577Z,11.00
2019-02-20T15:13:44.062Z,12.60
2019-02-20T15:16:12.593Z,9.60
2019-02-20T15:18:41.136Z,7.17
2019-02-20T15:21:11.437Z,13.33
2019-02-20T15:23:39.925Z,10.40
2019-02-20T15:26:08.462Z,12.73
2019-02-20T15:28:36.991Z,8.03
2019-02-20T15:31:05.838Z,11.63
2019-02-20T15:33:34.411Z,8.23
2019-02-20T15:36:02.912Z,16.60
2019-02-20T15:38:31.462Z,9.93
2019-02-20T15:41:00.315Z,11.80
2019-02-20T15:43:28.843Z,13.20
2019-02-20T15:45:57.385Z,13.67
2019-02-20T15:48:25.958Z,10.97
2019-02-20T15:50:54.795Z,11.97
2019-02-20T15:53:23.383Z,12.03
2019-02-20T15:55:51.891Z,16.33
2019-02-20T15:58:20.733Z,11.97
2019-02-20T16:00:49.258Z,13.33
2019-02-20T16:03:17.730Z,13.40
2019-02-20T16:05:46.277Z,11.20
2019-02-20T16:08:14.886Z,9.80
2019-02-20T16:10:43.418Z,11.50
2019-02-20T16:13:11.936Z,11.67
2019-02-20T16:15:40.690Z,9.37
2019-02-20T16:18:09.220Z,11.07
2019-02-20T16:20:37.770Z,13.00
2019-02-20T16:23:06.294Z,9.90
2019-02-20T16:25:34.831Z,11.13
2019-02-20T16:28:03.359Z,9.20
2019-02-20T16:30:31.879Z,9.23
2019-02-20T16:33:00.875Z,14.97
2019-02-20T16:35:29.455Z,9.80
2019-02-20T16:37:58.103Z,15.30
2019-02-20T16:40:26.639Z,11.77
2019-02-20T16:42:55.239Z,20.80
2019-02-20T16:45:25.117Z,18.17
2019-02-20T16:47:54.034Z,18.40
2019-02-20T16:50:22.645Z,17.97
2019-02-20T16:52:53.973Z,16.20
2019-02-20T16:55:22.977Z,14.10
2019-02-20T16:58:48.030Z,15.53
2019-02-20T17:01:16.614Z,13.97
2019-02-20T17:03:45.140Z,13.27
2019-02-20T17:06:13.578Z,17.00
2019-02-20T17:08:42.134Z,17.83
2019-02-20T17:11:10.668Z,19.13
2019-02-20T17:13:39.590Z,18.13
2019-02-20T17:16:08.150Z,16.57
2019-02-20T17:18:36.950Z,15.90
2019-02-20T17:21:05.597Z,15.83
2019-02-20T17:23:34.648Z,14.53
2019-02-20T17:26:03.365Z,24.53
2019-02-20T17:28:32.293Z,17.60
2019-02-20T17:31:02.235Z,21.53
2019-02-20T17:33:30.816Z,21.23
2019-02-20T17:35:59.355Z,18.17
2019-02-20T17:38:27.860Z,18.83
2019-02-20T17:40:56.563Z,14.60
2019-02-20T17:43:25.099Z,15.43
2019-02-20T17:45:53.621Z,17.93
2019-02-20T17:48:22.162Z,13.53
2019-02-20T17:50:50.734Z,15.07
2019-02-20T17:53:19.337Z,18.10
2019-02-20T17:55:48.216Z,13.40
2019-02-20T17:58:16.753Z,15.57
2019-02-20T18:00:45.490Z,17.40
2019-02-20T18:03:14.298Z,15.60
2019-02-20T18:05:42.771Z,19.67
2019-02-20T18:08:11.230Z,17.03
2019-02-20T18:10:39.776Z,19.30
2019-02-20T18:13:08.510Z,16.43
2019-02-20T18:15:38.063Z,16.67
2019-02-20T18:18:06.693Z,15.10
2019-02-20T18:20:35.240Z,15.53
2019-02-20T18:23:03.778Z,12.90
2019-02-20T18:25:32.321Z,16.07
2019-02-20T18:28:00.913Z,14.20
2019-02-20T18:30:29.422Z,11.57
2019-02-20T18:32:58.030Z,12.23
2019-02-20T18:35:26.581Z,14.03
2019-02-20T18:37:55.144Z,14.97
2019-02-20T18:40:23.679Z,18.80
2019-02-20T18:42:55.236Z,26.33
2019-02-20T18:45:23.761Z,25.67
2019-02-20T18:47:52.243Z,20.77
2019-02-20T18:50:20.844Z,17.77
2019-02-20T18:52:49.438Z,15.20
2019-02-20T18:55:17.982Z,17.53
2019-02-20T18:57:46.451Z,11.67
2019-02-20T19:00:17.416Z,14.43
2019-02-20T19:02:46.043Z,15.47
2019-02-20T19:05:15.324Z,12.23
2019-02-20T19:07:43.954Z,13.60
2019-02-20T19:10:33.683Z,9.93
2019-02-20T19:13:23.289Z,11.83
2019-02-20T19:15:57.823Z,12.93
2019-02-20T19:18:38.456Z,14.67
2019-02-20T19:21:19.159Z,11.23
2019-02-20T19:24:08.712Z,8.13
2019-02-20T19:26:55.355Z,11.10
2019-02-20T19:29:33.004Z,16.13
2019-02-20T19:32:36.728Z,10.03
2019-02-20T19:35:35.665Z,15.63
2019-02-20T19:38:15.890Z,26.63
2019-02-20T19:40:47.461Z,18.03
2019-02-20T19:43:34.158Z,22.83
2019-02-20T19:46:17.872Z,24.00
2019-02-20T19:49:13.334Z,21.43
2019-02-20T19:51:47.555Z,20.60
2019-02-20T19:54:38.455Z,21.23
2019-02-20T19:57:10.079Z,20.03
2019-02-20T19:59:50.544Z,20.73
2019-02-20T20:02:40.181Z,20.47
2019-02-20T20:05:23.511Z,20.27
2019-02-20T20:08:11.480Z,24.57
2019-02-20T20:10:52.157Z,19.60
2019-02-20T20:13:44.827Z,20.27
2019-02-20T20:16:28.451Z,17.30
2019-02-20T20:19:19.524Z,19.67
2019-02-20T20:22:06.063Z,20.50
2019-02-20T20:24:43.666Z,17.37
2019-02-20T20:27:27.233Z,18.00
2019-02-20T20:30:04.705Z,17.87
2019-02-20T20:32:39.093Z,20.93
2019-02-20T20:35:27.307Z,20.13
2019-02-20T20:38:02.017Z,15.07
2019-02-20T20:40:50.413Z,15.10
2019-02-20T20:43:27.851Z,16.83
2019-02-20T20:46:11.231Z,14.30
2019-02-20T20:48:48.478Z,12.87
2019-02-20T20:51:28.760Z,18.73
2019-02-20T20:54:30.793Z,14.30
2019-02-20T20:57:05.048Z,14.00
2019-02-20T20:59:45.437Z,13.73
2019-02-20T21:02:19.922Z,13.33
2019-02-20T21:05:25.031Z,13.97
2019-02-20T21:07:56.582Z,15.80
2019-02-20T21:10:30.738Z,17.17
2019-02-20T21:13:30.989Z,14.67
2019-02-20T21:16:11.471Z,16.00
2019-02-20T21:18:49.023Z,15.60
2019-02-20T21:21:20.553Z,13.50
2019-02-20T21:23:55.958Z,17.63
2019-02-20T21:26:33.314Z,15.90
2019-02-20T21:29:28.075Z,11.50
2019-02-20T21:32:18.844Z,16.57
2019-02-20T21:35:08.324Z,13.70
2019-02-20T21:37:39.931Z,15.13
2019-02-20T21:41:41.182Z,13.53
2019-02-20T21:44:41.771Z,15.03
2019-02-20T21:47:31.082Z,13.47
2019-02-20T21:50:02.641Z,13.10
2019-02-20T21:52:49.291Z,14.40
2019-02-20T21:55:29.559Z,13.63
2019-02-20T21:58:19.053Z,17.80
2019-02-20T22:01:02.517Z,16.93
2019-02-20T22:03:53.298Z,15.40
2019-02-20T22:06:53.271Z,18.20
2019-02-20T22:09:39.542Z,17.67
2019-02-20T22:12:11.064Z,16.50
2019-02-20T22:15:03.805Z,14.27
2019-02-20T22:17:50.404Z,17.40
2019-02-20T22:20:30.841Z,18.93
2019-02-20T22:23:17.551Z,17.87
2019-02-20T22:26:05.589Z,15.63
2019-02-20T22:29:10.598Z,18.73
2019-02-20T22:31:42.132Z,23.80
2019-02-20T22:34:33.059Z,23.43
2019-02-20T22:37:04.661Z,20.53
2019-02-20T22:39:39.276Z,21.53
2019-02-20T22:42:13.858Z,23.73
2019-02-20T22:45:03.547Z,18.77
2019-02-20T22:48:04.043Z,27.17
2019-02-20T22:50:41.651Z,22.80
2019-02-20T22:53:37.640Z,21.93
2019-02-20T22:56:09.162Z,20.53
2019-02-20T22:58:57.588Z,17.17
2019-02-20T23:01:35.158Z,18.50
2019-02-20T23:04:21.624Z,15.67
2019-02-20T23:07:02.166Z,17.97
2019-02-20T23:09:48.959Z,20.33
2019-02-20T23:12:20.848Z,14.73
2019-02-20T23:14:59.408Z,16.00
2019-02-20T23:17:28.671Z,11.83
2019-02-20T23:19:57.383Z,10.43
2019-02-20T23:22:25.915Z,15.00
2019-02-20T23:24:54.372Z,13.27
2019-02-20T23:27:22.885Z,13.50
2019-02-20T23:29:51.335Z,15.10
2019-02-20T23:32:19.805Z,14.53
2019-02-20T23:34:48.270Z,14.63
2019-02-20T23:37:16.796Z,14.40
2019-02-20T23:39:45.354Z,18.37
2019-02-20T23:42:13.894Z,16.60
2019-02-20T23:44:42.516Z,17.33
2019-02-20T23:47:10.980Z,17.27
2019-02-20T23:49:39.431Z,15.23
2019-02-20T23:52:07.897Z,16.30
2019-02-20T23:54:36.354Z,13.43
2019-02-20T23:57:04.992Z,14.80
2019-02-20T23:59:33.454Z,20.57
